createdAt,value
2023-06-16T00:01:33.128Z,43.88
2023-06-16T00:04:06.875Z,42.72
2023-06-16T00:06:33.294Z,41.76
2023-06-16T00:08:59.713Z,41.96
2023-06-16T00:11:26.209Z,41.47
2023-06-16T00:13:52.604Z,42.01
2023-06-16T00:16:19.181Z,42.18
2023-06-16T00:18:45.635Z,41.56
2023-06-16T00:21:12.151Z,40.94
2023-06-16T00:23:38.705Z,40.98
2023-06-16T00:26:05.072Z,40.50
2023-06-16T00:28:31.858Z,40.26
2023-06-16T00:30:58.600Z,39.96
2023-06-16T00:33:25.084Z,39.67
2023-06-16T00:35:51.817Z,39.71
2023-06-16T00:38:18.345Z,39.36
2023-06-16T00:40:45.046Z,39.14
2023-06-16T00:43:11.729Z,38.85
2023-06-16T00:45:38.158Z,39.17
2023-06-16T00:48:04.691Z,38.89
2023-06-16T00:50:31.188Z,38.38
2023-06-16T00:52:59.632Z,38.45
2023-06-16T00:55:26.253Z,39.44
2023-06-16T00:57:55.084Z,38.97
2023-06-16T01:00:21.519Z,39.29
2023-06-16T01:02:48.069Z,39.61
2023-06-16T01:05:15.631Z,39.74
2023-06-16T01:07:44.036Z,39.79
2023-06-16T01:10:12.394Z,40.11
2023-06-16T01:12:38.905Z,39.47
2023-06-16T01:15:07.064Z,39.67
2023-06-16T01:17:33.664Z,40.47
2023-06-16T01:20:00.119Z,41.63
2023-06-16T01:22:26.807Z,41.25
2023-06-16T01:24:53.346Z,41.64
2023-06-16T01:27:19.941Z,41.24
2023-06-16T01:29:46.448Z,42.11
2023-06-16T01:32:13.086Z,41.62
2023-06-16T01:34:39.676Z,41.00
2023-06-16T01:37:06.510Z,40.78
2023-06-16T01:39:32.968Z,40.79
2023-06-16T01:41:59.607Z,40.00
2023-06-16T01:44:26.562Z,40.23
2023-06-16T01:46:53.072Z,39.99
2023-06-16T01:49:19.933Z,39.87
2023-06-16T01:51:46.413Z,39.88
2023-06-16T01:54:12.977Z,39.80
2023-06-16T01:56:39.490Z,39.67
2023-06-16T01:59:05.878Z,39.35
2023-06-16T02:01:32.387Z,40.20
2023-06-16T02:04:01.136Z,40.02
2023-06-16T02:06:27.540Z,39.94
2023-06-16T02:08:54.468Z,40.62
2023-06-16T02:11:20.849Z,40.41
2023-06-16T02:13:47.311Z,40.37
2023-06-16T02:16:14.322Z,40.03
2023-06-16T02:18:43.208Z,39.72
2023-06-16T02:21:09.585Z,39.89
2023-06-16T02:23:36.264Z,39.77
2023-06-16T02:26:03.009Z,40.41
2023-06-16T02:28:29.516Z,39.60
2023-06-16T02:30:56.031Z,39.81
2023-06-16T02:33:22.613Z,40.85
2023-06-16T02:35:49.058Z,40.89
2023-06-16T02:38:15.475Z,40.13
2023-06-16T02:40:42.294Z,40.35
2023-06-16T02:43:09.969Z,40.93
2023-06-16T02:45:36.739Z,41.43
2023-06-16T02:48:03.224Z,41.39
2023-06-16T02:50:29.633Z,40.99
2023-06-16T02:52:56.140Z,40.29
2023-06-16T02:55:22.888Z,40.06
2023-06-16T02:57:49.299Z,40.51
2023-06-16T03:00:16.042Z,40.28
2023-06-16T03:02:44.919Z,40.42
2023-06-16T03:05:11.629Z,40.33
2023-06-16T03:07:38.526Z,40.33
2023-06-16T03:10:04.983Z,39.82
2023-06-16T03:12:33.736Z,40.83
2023-06-16T03:15:00.132Z,41.15
2023-06-16T03:17:26.678Z,41.03
2023-06-16T03:19:54.984Z,41.03
2023-06-16T03:22:21.749Z,41.04
2023-06-16T03:24:49.805Z,41.09
2023-06-16T03:27:16.249Z,41.65
2023-06-16T03:29:42.823Z,41.53
2023-06-16T03:32:09.291Z,41.24
2023-06-16T03:34:35.716Z,40.85
2023-06-16T03:37:02.175Z,41.31
2023-06-16T03:39:28.631Z,41.04
2023-06-16T03:41:55.048Z,41.26
2023-06-16T03:44:21.521Z,41.76
2023-06-16T03:46:48.337Z,42.36
2023-06-16T03:49:15.046Z,42.38
2023-06-16T03:51:41.469Z,42.41
2023-06-16T03:54:07.930Z,42.18
2023-06-16T03:56:34.348Z,42.77
2023-06-16T03:59:00.957Z,42.16
2023-06-16T04:01:28.029Z,42.82
2023-06-16T04:03:54.779Z,43.69
2023-06-16T04:06:21.282Z,43.37
2023-06-16T04:08:50.446Z,42.87
2023-06-16T04:11:20.417Z,42.94
2023-06-16T04:13:49.947Z,42.28
2023-06-16T04:16:16.718Z,41.79
2023-06-16T04:18:43.149Z,42.87
2023-06-16T04:21:09.507Z,42.75
2023-06-16T04:23:35.968Z,42.55
2023-06-16T04:26:02.387Z,42.65
2023-06-16T04:28:30.846Z,42.65
2023-06-16T04:30:58.064Z,43.10
2023-06-16T04:33:24.660Z,43.88
2023-06-16T04:35:51.419Z,43.49
2023-06-16T04:38:18.017Z,43.00
2023-06-16T04:40:44.463Z,43.22
2023-06-16T04:43:10.915Z,42.87
2023-06-16T04:45:37.396Z,43.22
2023-06-16T04:48:03.841Z,43.25
2023-06-16T04:50:30.394Z,43.17
2023-06-16T04:52:56.768Z,43.60
2023-06-16T04:55:23.200Z,42.86
2023-06-16T04:57:49.681Z,43.20
2023-06-16T05:00:16.227Z,43.29
2023-06-16T05:02:42.966Z,44.03
2023-06-16T05:05:09.389Z,43.37
2023-06-16T05:07:35.841Z,43.56
2023-06-16T05:10:02.260Z,43.40
2023-06-16T05:12:28.643Z,43.11
2023-06-16T05:14:55.149Z,43.08
2023-06-16T05:17:21.559Z,43.70
2023-06-16T05:19:48.126Z,43.15
2023-06-16T05:22:14.852Z,44.24
2023-06-16T05:24:41.411Z,45.17
2023-06-16T05:27:08.136Z,45.67
2023-06-16T05:29:34.468Z,45.79
2023-06-16T05:32:00.858Z,44.31
2023-06-16T05:34:27.216Z,44.74
2023-06-16T05:36:53.577Z,44.99
2023-06-16T05:39:20.207Z,44.86
2023-06-16T05:41:46.578Z,44.15
2023-06-16T05:44:13.002Z,42.98
2023-06-16T05:46:39.410Z,43.61
2023-06-16T05:49:05.793Z,42.70
2023-06-16T05:51:32.180Z,43.32
2023-06-16T05:53:58.548Z,42.81
2023-06-16T05:56:25.090Z,42.78
2023-06-16T05:58:52.675Z,41.46
2023-06-16T06:01:19.170Z,41.90
2023-06-16T06:03:45.724Z,41.77
2023-06-16T06:06:12.186Z,41.44
2023-06-16T06:08:38.658Z,41.83
2023-06-16T06:11:05.084Z,42.23
2023-06-16T06:13:31.591Z,42.90
2023-06-16T06:15:58.141Z,42.39
2023-06-16T06:18:24.482Z,41.52
2023-06-16T06:20:50.886Z,41.71
2023-06-16T06:23:17.593Z,41.32
2023-06-16T06:28:35.349Z,40.60
2023-06-16T06:31:01.768Z,44.34
2023-06-16T06:33:28.773Z,43.87
2023-06-16T06:35:55.557Z,44.68
2023-06-16T06:38:24.396Z,43.18
2023-06-16T06:40:50.798Z,45.17
2023-06-16T06:43:17.292Z,43.45
2023-06-16T06:45:44.184Z,44.01
2023-06-16T06:48:10.876Z,44.05
2023-06-16T06:50:37.759Z,43.61
2023-06-16T06:53:04.500Z,44.15
2023-06-16T06:55:30.880Z,45.28
2023-06-16T06:57:57.487Z,42.14
2023-06-16T07:00:25.367Z,41.03
2023-06-16T07:02:52.021Z,40.68
2023-06-16T07:05:18.960Z,42.00
2023-06-16T07:07:45.532Z,43.12
2023-06-16T07:10:15.348Z,41.42
2023-06-16T07:12:42.722Z,42.42
2023-06-16T07:15:16.620Z,43.18
2023-06-16T07:17:43.592Z,43.13
2023-06-16T07:20:11.470Z,43.46
2023-06-16T07:22:38.008Z,43.40
2023-06-16T07:25:07.739Z,42.76
2023-06-16T07:27:35.189Z,41.79
2023-06-16T07:30:01.568Z,43.27
2023-06-16T07:32:28.060Z,44.32
2023-06-16T07:34:54.462Z,43.58
2023-06-16T07:37:21.488Z,43.88
2023-06-16T07:39:49.916Z,43.46
2023-06-16T07:42:16.445Z,44.48
2023-06-16T07:44:43.030Z,44.66
2023-06-16T07:47:11.470Z,43.29
2023-06-16T07:49:38.190Z,43.10
2023-06-16T07:52:05.117Z,43.45
2023-06-16T07:54:31.654Z,42.07
2023-06-16T07:56:58.428Z,43.60
2023-06-16T07:59:25.453Z,43.80
2023-06-16T08:01:52.424Z,42.95
2023-06-16T08:04:20.319Z,41.72
2023-06-16T08:06:46.948Z,40.30
2023-06-16T08:09:13.595Z,42.11
2023-06-16T08:11:42.898Z,40.49
2023-06-16T08:14:09.645Z,42.93
2023-06-16T08:16:36.071Z,43.72
2023-06-16T08:19:02.741Z,42.21
2023-06-16T08:21:29.489Z,42.86
2023-06-16T08:23:56.038Z,41.94
2023-06-16T08:26:22.728Z,42.60
2023-06-16T08:28:49.449Z,45.09
2023-06-16T08:31:18.881Z,44.28
2023-06-16T08:33:45.520Z,43.46
2023-06-16T08:36:14.312Z,42.78
2023-06-16T08:38:41.822Z,43.79
2023-06-16T08:41:08.603Z,43.63
2023-06-16T08:43:41.351Z,42.19
2023-06-16T08:46:13.530Z,42.94
2023-06-16T08:48:40.087Z,41.07
2023-06-16T08:51:06.561Z,41.20
2023-06-16T08:53:33.192Z,40.85
2023-06-16T08:55:59.622Z,42.36
2023-06-16T08:58:27.141Z,41.42
2023-06-16T09:00:53.674Z,42.12
2023-06-16T09:03:20.276Z,42.29
2023-06-16T09:05:47.277Z,41.32
2023-06-16T09:08:13.792Z,40.80
2023-06-16T09:10:40.417Z,40.83
2023-06-16T09:13:06.950Z,40.29
2023-06-16T09:15:33.571Z,41.07
2023-06-16T09:18:00.286Z,40.54
2023-06-16T09:20:26.796Z,38.94
2023-06-16T09:22:54.332Z,39.23
2023-06-16T09:25:20.870Z,38.63
2023-06-16T09:27:47.316Z,38.91
2023-06-16T09:30:14.650Z,38.65
2023-06-16T09:32:41.179Z,39.63
2023-06-16T09:35:07.626Z,39.47
2023-06-16T09:37:34.991Z,39.40
2023-06-16T09:40:01.785Z,38.84
2023-06-16T09:42:28.307Z,39.46
2023-06-16T09:44:54.785Z,39.22
2023-06-16T09:47:21.560Z,37.67
2023-06-16T09:49:47.981Z,37.44
2023-06-16T09:52:17.057Z,37.04
2023-06-16T09:54:46.644Z,36.79
2023-06-16T09:57:14.294Z,37.79
2023-06-16T09:59:42.821Z,37.98
2023-06-16T10:02:11.438Z,37.39
2023-06-16T10:04:38.152Z,36.99
2023-06-16T10:07:04.786Z,37.20
2023-06-16T10:09:31.230Z,38.33
2023-06-16T10:11:57.813Z,36.23
2023-06-16T10:14:24.331Z,35.09
2023-06-16T10:16:50.874Z,36.17
2023-06-16T10:19:18.040Z,36.56
2023-06-16T10:21:44.817Z,36.02
2023-06-16T10:24:13.471Z,36.32
2023-06-16T10:26:43.487Z,35.63
2023-06-16T10:29:11.173Z,33.64
2023-06-16T10:31:37.610Z,34.25
2023-06-16T10:34:04.592Z,32.15
2023-06-16T10:36:31.081Z,32.51
2023-06-16T10:38:59.749Z,31.63
2023-06-16T10:41:27.454Z,31.32
2023-06-16T10:43:54.404Z,31.61
2023-06-16T10:49:08.679Z,31.18
2023-06-16T10:51:35.188Z,33.25
2023-06-16T10:54:01.752Z,33.36
2023-06-16T10:56:28.425Z,33.10
2023-06-16T10:58:54.830Z,34.04
2023-06-16T11:01:21.529Z,31.92
2023-06-16T11:03:48.277Z,32.09
2023-06-16T11:06:15.122Z,32.09
2023-06-16T11:08:41.562Z,30.77
2023-06-16T11:11:08.291Z,30.62
2023-06-16T11:13:35.177Z,29.50
2023-06-16T11:16:01.816Z,29.76
2023-06-16T11:18:28.368Z,30.13
2023-06-16T11:20:54.849Z,30.95
2023-06-16T11:23:21.283Z,31.13
2023-06-16T11:25:50.004Z,30.91
2023-06-16T11:28:16.337Z,30.02
2023-06-16T11:30:42.730Z,30.63
2023-06-16T11:33:09.205Z,29.69
2023-06-16T11:35:35.779Z,30.10
2023-06-16T11:38:02.754Z,33.02
2023-06-16T11:40:29.629Z,34.10
2023-06-16T11:42:56.677Z,34.11
2023-06-16T11:45:25.392Z,32.97
2023-06-16T11:47:52.484Z,33.91
2023-06-16T11:50:20.197Z,32.82
2023-06-16T11:52:49.238Z,30.59
2023-06-16T11:55:16.021Z,28.49
2023-06-16T11:57:42.441Z,28.80
2023-06-16T12:00:08.915Z,28.17
2023-06-16T12:02:36.333Z,26.67
2023-06-16T12:05:03.165Z,27.49
2023-06-16T12:07:29.828Z,27.51
2023-06-16T12:09:56.765Z,27.58
2023-06-16T12:12:23.268Z,27.06
2023-06-16T12:14:49.713Z,28.14
2023-06-16T12:17:16.458Z,28.11
2023-06-16T12:19:43.733Z,28.63
2023-06-16T12:22:10.426Z,28.21
2023-06-16T12:24:37.853Z,28.21
2023-06-16T12:27:04.387Z,29.29
2023-06-16T12:29:30.889Z,28.77
2023-06-16T12:31:57.730Z,29.27
2023-06-16T12:34:24.251Z,29.85
2023-06-16T12:36:50.712Z,30.01
2023-06-16T12:39:17.244Z,30.58
2023-06-16T12:41:43.701Z,30.51
2023-06-16T12:44:10.916Z,30.71
2023-06-16T12:46:37.480Z,30.35
2023-06-16T12:49:03.946Z,31.18
2023-06-16T12:51:30.625Z,31.58
2023-06-16T12:53:57.606Z,31.61
2023-06-16T12:56:24.036Z,31.66
2023-06-16T12:58:50.593Z,32.24
2023-06-16T13:01:18.095Z,31.54
2023-06-16T13:03:44.826Z,32.17
2023-06-16T13:06:12.547Z,31.87
2023-06-16T13:08:39.082Z,30.17
2023-06-16T13:11:05.519Z,31.52
2023-06-16T13:13:32.076Z,31.03
2023-06-16T13:15:58.609Z,30.79
2023-06-16T13:18:27.416Z,31.09
2023-06-16T13:20:57.030Z,30.68
2023-06-16T13:23:23.482Z,30.14
2023-06-16T13:25:49.975Z,30.63
2023-06-16T13:28:17.673Z,29.71
2023-06-16T13:30:44.453Z,29.87
2023-06-16T13:33:10.931Z,30.03
2023-06-16T13:35:37.434Z,29.57
2023-06-16T13:38:04.667Z,29.50
2023-06-16T13:40:31.044Z,29.33
2023-06-16T13:42:57.490Z,29.12
2023-06-16T13:45:24.131Z,29.09
2023-06-16T13:47:50.550Z,28.83
2023-06-16T13:50:17.135Z,28.57
2023-06-16T13:52:43.721Z,28.44
2023-06-16T13:55:10.320Z,28.23
2023-06-16T13:57:36.786Z,28.24
2023-06-16T14:00:03.290Z,27.78
2023-06-16T14:02:29.806Z,27.84
2023-06-16T14:04:57.969Z,27.56
2023-06-16T14:07:26.780Z,27.46
2023-06-16T14:09:53.535Z,27.31
2023-06-16T14:12:20.019Z,27.29
2023-06-16T14:14:49.957Z,27.15
2023-06-16T14:17:19.392Z,27.51
2023-06-16T14:19:45.839Z,27.00
2023-06-16T14:22:12.455Z,27.46
2023-06-16T14:24:39.001Z,27.40
2023-06-16T14:27:05.774Z,27.03
2023-06-16T14:29:33.060Z,27.38
2023-06-16T14:31:59.511Z,27.99
2023-06-16T14:34:25.907Z,27.33
2023-06-16T14:36:52.560Z,26.53
2023-06-16T14:39:19.062Z,26.83
2023-06-16T14:41:45.454Z,26.97
2023-06-16T14:44:11.938Z,26.63
2023-06-16T14:46:38.551Z,27.35
2023-06-16T14:49:05.035Z,26.32
2023-06-16T14:51:31.547Z,26.88
2023-06-16T14:53:58.146Z,27.34
2023-06-16T14:56:25.799Z,27.68
2023-06-16T14:58:52.281Z,27.84
2023-06-16T15:01:18.956Z,27.77
2023-06-16T15:03:45.759Z,28.42
2023-06-16T15:06:15.339Z,28.25
2023-06-16T15:08:43.055Z,28.50
2023-06-16T15:11:10.103Z,28.86
2023-06-16T15:13:36.624Z,28.50
2023-06-16T15:16:03.140Z,28.82
2023-06-16T15:18:30.693Z,29.03
2023-06-16T15:20:57.133Z,29.01
2023-06-16T15:23:23.901Z,28.99
2023-06-16T15:25:50.547Z,28.62
2023-06-16T15:28:17.078Z,28.66
2023-06-16T15:30:43.535Z,28.97
2023-06-16T15:33:10.088Z,28.15
2023-06-16T15:35:37.492Z,27.65
2023-06-16T15:38:04.988Z,28.49
2023-06-16T15:40:31.456Z,27.77
2023-06-16T15:42:59.216Z,28.05
2023-06-16T15:45:25.610Z,28.02
2023-06-16T15:47:52.289Z,29.67
2023-06-16T15:50:19.105Z,28.69
2023-06-16T15:52:45.773Z,28.47
2023-06-16T15:55:12.873Z,27.76
2023-06-16T15:57:39.421Z,27.57
2023-06-16T16:00:05.903Z,28.05
2023-06-16T16:02:36.746Z,27.68
2023-06-16T16:05:03.489Z,26.97
2023-06-16T16:07:31.061Z,27.42
2023-06-16T16:09:57.475Z,27.82
2023-06-16T16:12:30.516Z,27.06
2023-06-16T16:14:57.015Z,26.92
2023-06-16T16:17:23.464Z,27.78
2023-06-16T16:19:49.950Z,28.55
2023-06-16T16:22:16.437Z,28.51
2023-06-16T16:24:42.894Z,29.25
2023-06-16T16:27:09.605Z,28.27
2023-06-16T16:29:36.680Z,27.94
2023-06-16T16:32:03.529Z,27.63
2023-06-16T16:34:30.065Z,26.72
2023-06-16T16:36:56.476Z,26.51
2023-06-16T16:39:23.398Z,25.92
2023-06-16T16:41:49.892Z,27.23
2023-06-16T16:44:16.658Z,26.21
2023-06-16T16:46:43.160Z,25.87
2023-06-16T16:49:10.942Z,25.40
2023-06-16T16:51:37.747Z,27.11
2023-06-16T16:54:04.246Z,28.67
2023-06-16T16:56:31.106Z,29.60
2023-06-16T16:58:57.842Z,30.44
2023-06-16T17:01:24.305Z,29.44
2023-06-16T17:03:50.800Z,28.36
2023-06-16T17:06:18.232Z,29.04
2023-06-16T17:08:45.007Z,27.84
2023-06-16T17:11:14.440Z,27.83
2023-06-16T17:13:40.899Z,28.18
2023-06-16T17:16:07.373Z,28.59
2023-06-16T17:18:34.898Z,27.83
2023-06-16T17:21:03.464Z,26.93
2023-06-16T17:23:30.200Z,27.05
2023-06-16T17:25:57.612Z,28.26
2023-06-16T17:28:24.046Z,27.96
2023-06-16T17:30:50.685Z,28.83
2023-06-16T17:33:17.141Z,27.96
2023-06-16T17:35:44.817Z,28.58
2023-06-16T17:38:12.234Z,29.90
2023-06-16T17:40:38.800Z,29.86
2023-06-16T17:43:05.448Z,30.45
2023-06-16T17:45:32.179Z,31.13
2023-06-16T17:47:58.624Z,32.01
2023-06-16T17:50:28.405Z,31.79
2023-06-16T17:52:55.844Z,31.60
2023-06-16T17:55:22.477Z,31.79
2023-06-16T17:57:49.135Z,30.58
2023-06-16T18:00:17.149Z,30.39
2023-06-16T18:02:44.401Z,29.57
2023-06-16T18:05:11.255Z,30.36
2023-06-16T18:07:38.577Z,30.81
2023-06-16T18:10:05.170Z,30.50
2023-06-16T18:12:32.096Z,30.37
2023-06-16T18:14:58.995Z,31.15
2023-06-16T18:17:25.643Z,31.18
2023-06-16T18:19:54.489Z,29.15
2023-06-16T18:22:21.304Z,29.02
2023-06-16T18:24:48.951Z,28.91
2023-06-16T18:27:15.903Z,29.08
2023-06-16T18:29:42.781Z,29.08
2023-06-16T18:32:09.817Z,28.42
2023-06-16T18:34:36.920Z,29.75
2023-06-16T18:37:06.215Z,29.86
2023-06-16T18:39:33.371Z,30.38
2023-06-16T18:42:00.492Z,30.76
2023-06-16T18:44:27.712Z,31.23
2023-06-16T18:46:55.001Z,30.96
2023-06-16T18:49:22.253Z,30.75
2023-06-16T18:51:49.470Z,30.35
2023-06-16T18:54:16.641Z,31.12
2023-06-16T18:56:43.850Z,31.06
2023-06-16T18:59:11.130Z,32.96
2023-06-16T19:01:38.640Z,32.49
2023-06-16T19:04:06.114Z,32.49
2023-06-16T19:06:33.397Z,32.11
2023-06-16T19:09:00.597Z,31.89
2023-06-16T19:11:28.061Z,32.57
2023-06-16T19:13:55.170Z,32.24
2023-06-16T19:16:21.949Z,33.24
2023-06-16T19:18:48.959Z,32.49
2023-06-16T19:21:15.966Z,32.49
2023-06-16T19:23:42.590Z,32.17
2023-06-16T19:26:09.031Z,32.50
2023-06-16T19:28:36.834Z,32.25
2023-06-16T19:31:03.987Z,32.72
2023-06-16T19:33:31.110Z,32.74
2023-06-16T19:35:57.725Z,32.23
2023-06-16T19:38:24.415Z,32.18
2023-06-16T19:40:51.308Z,32.70
2023-06-16T19:43:17.736Z,32.84
2023-06-16T19:45:44.103Z,32.05
2023-06-16T19:48:10.830Z,32.68
2023-06-16T19:50:37.365Z,32.33
2023-06-16T19:53:03.857Z,32.09
2023-06-16T19:55:40.890Z,32.69
2023-06-16T19:58:12.825Z,32.64
2023-06-16T20:00:39.591Z,32.66
2023-06-16T20:03:08.611Z,33.53
2023-06-16T20:05:35.962Z,32.93
2023-06-16T20:08:03.200Z,33.10
2023-06-16T20:10:30.526Z,33.19
2023-06-16T20:12:57.269Z,33.36
2023-06-16T20:15:24.293Z,33.44
2023-06-16T20:17:53.024Z,33.91
2023-06-16T20:20:19.673Z,33.84
2023-06-16T20:22:46.699Z,33.44
2023-06-16T20:25:13.359Z,33.94
2023-06-16T20:27:42.076Z,33.40
2023-06-16T20:30:08.501Z,33.57
2023-06-16T20:32:35.088Z,33.06
2023-06-16T20:35:01.685Z,33.32
2023-06-16T20:37:29.449Z,33.69
2023-06-16T20:39:55.853Z,33.95
2023-06-16T20:42:22.314Z,33.63
2023-06-16T20:44:50.841Z,33.02
2023-06-16T20:47:17.317Z,33.10
2023-06-16T20:49:43.712Z,32.66
2023-06-16T20:52:10.141Z,32.87
2023-06-16T20:54:36.523Z,33.27
2023-06-16T20:57:03.094Z,33.55
2023-06-16T20:59:29.907Z,33.67
2023-06-16T21:01:58.992Z,33.96
2023-06-16T21:04:25.482Z,34.33
2023-06-16T21:06:51.912Z,34.35
2023-06-16T21:09:18.314Z,33.96
2023-06-16T21:11:44.756Z,33.95
2023-06-16T21:14:11.334Z,33.22
2023-06-16T21:16:37.835Z,33.10
2023-06-16T21:19:05.292Z,33.03
2023-06-16T21:21:31.801Z,33.12
2023-06-16T21:23:58.258Z,32.87
2023-06-16T21:26:26.793Z,33.26
2023-06-16T21:28:53.296Z,33.53
2023-06-16T21:31:19.981Z,33.99
2023-06-16T21:33:46.438Z,34.94
2023-06-16T21:36:12.997Z,35.63
2023-06-16T21:38:39.437Z,35.39
2023-06-16T21:41:06.110Z,34.50
2023-06-16T21:43:32.622Z,35.83
2023-06-16T21:45:59.910Z,36.88
2023-06-16T21:48:26.332Z,35.87
2023-06-16T21:50:52.780Z,35.90
2023-06-16T21:53:19.217Z,35.51
2023-06-16T21:55:45.608Z,35.66
2023-06-16T21:58:12.063Z,36.18
2023-06-16T22:00:38.811Z,36.11
2023-06-16T22:03:08.023Z,37.12
2023-06-16T22:05:34.675Z,36.67
2023-06-16T22:08:01.142Z,36.25
2023-06-16T22:10:29.698Z,36.59
2023-06-16T22:12:56.199Z,36.50
2023-06-16T22:15:22.614Z,36.96
2023-06-16T22:17:49.055Z,37.13
2023-06-16T22:20:16.110Z,37.04
2023-06-16T22:22:42.481Z,36.85
2023-06-16T22:25:09.431Z,37.06
2023-06-16T22:27:36.213Z,37.31
2023-06-16T22:30:02.959Z,37.33
2023-06-16T22:32:29.466Z,37.87
2023-06-16T22:34:55.909Z,38.10
2023-06-16T22:37:22.482Z,37.98
2023-06-16T22:39:49.261Z,38.65
2023-06-16T22:42:15.638Z,37.97
2023-06-16T22:44:42.977Z,37.52
2023-06-16T22:47:09.592Z,37.59
2023-06-16T22:49:36.197Z,38.08
2023-06-16T22:52:02.796Z,38.27
2023-06-16T22:54:29.260Z,39.23
2023-06-16T22:56:55.884Z,39.17
2023-06-16T22:59:22.458Z,39.41
2023-06-16T23:01:49.010Z,39.48
2023-06-16T23:04:16.092Z,38.97
2023-06-16T23:06:42.521Z,39.31
2023-06-16T23:09:09.277Z,39.21
2023-06-16T23:11:36.193Z,39.64
2023-06-16T23:14:02.706Z,39.36
2023-06-16T23:16:31.402Z,38.96
2023-06-16T23:19:00.181Z,38.42
2023-06-16T23:21:26.728Z,38.69
2023-06-16T23:23:53.536Z,40.20
2023-06-16T23:26:20.023Z,39.83
2023-06-16T23:28:46.429Z,39.25
2023-06-16T23:31:12.997Z,39.35
2023-06-16T23:33:39.388Z,39.08
2023-06-16T23:36:05.863Z,40.17
2023-06-16T23:38:32.287Z,39.90
2023-06-16T23:41:00.827Z,39.99
2023-06-16T23:43:27.372Z,41.14
2023-06-16T23:46:00.884Z,41.36
2023-06-16T23:48:27.300Z,41.31
2023-06-16T23:50:53.748Z,41.49
2023-06-16T23:53:25.491Z,41.00
2023-06-16T23:55:51.907Z,40.33
2023-06-16T23:58:18.337Z,40.37
